sensor_id;sensor_type;location;lat;lon;timestamp;temperature;humidity
33508;DHT22;25568;37.410;-122.096;2023-03-08T00:01:36;16.40;73.50
33508;DHT22;25568;37.410;-122.096;2023-03-08T00:04:04;16.40;73.50
33508;DHT22;25568;37.410;-122.096;2023-03-08T00:06:33;16.50;73.60
33508;DHT22;25568;37.410;-122.096;2023-03-08T00:09:03;16.50;73.60
33508;DHT22;25568;37.410;-122.096;2023-03-08T00:11:31;16.50;74.50
33508;DHT22;25568;37.410;-122.096;2023-03-08T00:14:00;16.50;79.50
33508;DHT22;25568;37.410;-122.096;2023-03-08T00:16:29;16.60;82.90
33508;DHT22;25568;37.410;-122.096;2023-03-08T00:19:00;16.60;82.00
33508;DHT22;25568;37.410;-122.096;2023-03-08T00:21:29;16.70;80.40
33508;DHT22;25568;37.410;-122.096;2023-03-08T00:23:57;16.60;79.10
33508;DHT22;25568;37.410;-122.096;2023-03-08T00:26:26;16.70;78.30
33508;DHT22;25568;37.410;-122.096;2023-03-08T00:28:55;16.70;77.50
33508;DHT22;25568;37.410;-122.096;2023-03-08T00:31:24;16.70;77.10
33508;DHT22;25568;37.410;-122.096;2023-03-08T00:33:54;16.70;76.40
33508;DHT22;25568;37.410;-122.096;2023-03-08T00:36:24;16.70;75.90
33508;DHT22;25568;37.410;-122.096;2023-03-08T00:38:54;16.70;75.40
33508;DHT22;25568;37.410;-122.096;2023-03-08T00:41:23;16.70;75.20
33508;DHT22;25568;37.410;-122.096;2023-03-08T00:43:52;16.70;75.40
33508;DHT22;25568;37.410;-122.096;2023-03-08T00:46:21;16.70;75.60
33508;DHT22;25568;37.410;-122.096;2023-03-08T00:48:50;16.70;75.60
33508;DHT22;25568;37.410;-122.096;2023-03-08T00:51:19;16.70;75.70
33508;DHT22;25568;37.410;-122.096;2023-03-08T00:53:51;16.80;75.80
33508;DHT22;25568;37.410;-122.096;2023-03-08T00:56:20;16.70;75.70
33508;DHT22;25568;37.410;-122.096;2023-03-08T00:58:49;16.70;75.60
33508;DHT22;25568;37.410;-122.096;2023-03-08T01:01:18;16.80;75.80
33508;DHT22;25568;37.410;-122.096;2023-03-08T01:03:47;16.80;75.90
33508;DHT22;25568;37.410;-122.096;2023-03-08T01:06:16;16.80;75.90
33508;DHT22;25568;37.410;-122.096;2023-03-08T01:08:45;16.80;75.90
33508;DHT22;25568;37.410;-122.096;2023-03-08T01:11:19;16.80;76.10
33508;DHT22;25568;37.410;-122.096;2023-03-08T01:13:49;16.80;76.60
33508;DHT22;25568;37.410;-122.096;2023-03-08T01:16:20;16.80;76.20
33508;DHT22;25568;37.410;-122.096;2023-03-08T01:18:49;16.80;76.30
33508;DHT22;25568;37.410;-122.096;2023-03-08T01:21:18;16.80;76.40
33508;DHT22;25568;37.410;-122.096;2023-03-08T01:23:48;16.80;76.40
33508;DHT22;25568;37.410;-122.096;2023-03-08T01:26:20;16.80;76.40
33508;DHT22;25568;37.410;-122.096;2023-03-08T01:28:50;16.80;76.40
33508;DHT22;25568;37.410;-122.096;2023-03-08T01:31:20;16.80;76.40
33508;DHT22;25568;37.410;-122.096;2023-03-08T01:33:49;16.80;76.50
33508;DHT22;25568;37.410;-122.096;2023-03-08T01:36:20;16.90;76.60
33508;DHT22;25568;37.410;-122.096;2023-03-08T01:38:49;16.80;76.60
33508;DHT22;25568;37.410;-122.096;2023-03-08T01:41:21;16.80;76.60
33508;DHT22;25568;37.410;-122.096;2023-03-08T01:43:51;16.80;76.60
33508;DHT22;25568;37.410;-122.096;2023-03-08T01:46:23;16.90;76.70
33508;DHT22;25568;37.410;-122.096;2023-03-08T01:48:58;16.90;76.70
33508;DHT22;25568;37.410;-122.096;2023-03-08T01:51:34;16.80;76.60
33508;DHT22;25568;37.410;-122.096;2023-03-08T01:54:07;16.90;76.80
33508;DHT22;25568;37.410;-122.096;2023-03-08T01:56:39;16.90;76.80
33508;DHT22;25568;37.410;-122.096;2023-03-08T01:59:08;16.90;76.70
33508;DHT22;25568;37.410;-122.096;2023-03-08T02:01:38;16.90;76.70
33508;DHT22;25568;37.410;-122.096;2023-03-08T02:04:08;16.90;76.80
33508;DHT22;25568;37.410;-122.096;2023-03-08T02:06:37;16.90;76.80
33508;DHT22;25568;37.410;-122.096;2023-03-08T02:09:07;16.80;76.70
33508;DHT22;25568;37.410;-122.096;2023-03-08T02:11:38;16.90;76.70
33508;DHT22;25568;37.410;-122.096;2023-03-08T02:14:08;16.90;76.80
33508;DHT22;25568;37.410;-122.096;2023-03-08T02:16:37;16.80;76.80
33508;DHT22;25568;37.410;-122.096;2023-03-08T02:19:11;16.90;76.80
33508;DHT22;25568;37.410;-122.096;2023-03-08T02:21:41;16.90;76.80
33508;DHT22;25568;37.410;-122.096;2023-03-08T02:24:20;16.90;76.80
33508;DHT22;25568;37.410;-122.096;2023-03-08T02:26:51;16.90;76.80
33508;DHT22;25568;37.410;-122.096;2023-03-08T02:29:24;16.90;76.80
33508;DHT22;25568;37.410;-122.096;2023-03-08T02:31:53;16.80;76.70
33508;DHT22;25568;37.410;-122.096;2023-03-08T02:34:22;16.80;76.80
33508;DHT22;25568;37.410;-122.096;2023-03-08T02:36:51;16.90;76.80
33508;DHT22;25568;37.410;-122.096;2023-03-08T02:39:21;16.90;76.90
33508;DHT22;25568;37.410;-122.096;2023-03-08T02:41:50;16.90;76.90
33508;DHT22;25568;37.410;-122.096;2023-03-08T02:44:19;16.90;77.00
33508;DHT22;25568;37.410;-122.096;2023-03-08T02:46:48;16.80;77.00
33508;DHT22;25568;37.410;-122.096;2023-03-08T02:49:17;16.80;77.10
33508;DHT22;25568;37.410;-122.096;2023-03-08T02:51:46;16.80;77.30
33508;DHT22;25568;37.410;-122.096;2023-03-08T02:54:15;16.80;77.40
33508;DHT22;25568;37.410;-122.096;2023-03-08T02:56:46;16.80;77.70
33508;DHT22;25568;37.410;-122.096;2023-03-08T03:02:01;16.80;78.70
33508;DHT22;25568;37.410;-122.096;2023-03-08T03:04:31;16.80;79.00
33508;DHT22;25568;37.410;-122.096;2023-03-08T03:07:00;16.80;79.40
33508;DHT22;25568;37.410;-122.096;2023-03-08T03:09:29;16.80;79.70
33508;DHT22;25568;37.410;-122.096;2023-03-08T03:12:00;16.80;79.80
33508;DHT22;25568;37.410;-122.096;2023-03-08T03:14:29;16.80;80.00
33508;DHT22;25568;37.410;-122.096;2023-03-08T03:16:58;16.80;80.00
33508;DHT22;25568;37.410;-122.096;2023-03-08T03:19:27;16.80;80.20
33508;DHT22;25568;37.410;-122.096;2023-03-08T03:21:56;16.80;80.20
33508;DHT22;25568;37.410;-122.096;2023-03-08T03:24:25;16.80;80.30
33508;DHT22;25568;37.410;-122.096;2023-03-08T03:26:53;16.80;80.20
33508;DHT22;25568;37.410;-122.096;2023-03-08T03:29:24;16.80;80.40
33508;DHT22;25568;37.410;-122.096;2023-03-08T03:31:53;16.80;80.40
33508;DHT22;25568;37.410;-122.096;2023-03-08T03:34:22;16.80;80.40
33508;DHT22;25568;37.410;-122.096;2023-03-08T03:36:51;16.80;80.40
33508;DHT22;25568;37.410;-122.096;2023-03-08T03:39:19;16.80;80.40
33508;DHT22;25568;37.410;-122.096;2023-03-08T03:41:49;16.80;80.40
33508;DHT22;25568;37.410;-122.096;2023-03-08T03:44:18;16.80;80.40
33508;DHT22;25568;37.410;-122.096;2023-03-08T03:46:48;16.70;80.30
33508;DHT22;25568;37.410;-122.096;2023-03-08T03:49:17;16.80;80.40
33508;DHT22;25568;37.410;-122.096;2023-03-08T03:51:46;16.80;80.40
33508;DHT22;25568;37.410;-122.096;2023-03-08T03:54:15;16.70;80.40
33508;DHT22;25568;37.410;-122.096;2023-03-08T03:56:43;16.70;80.40
33508;DHT22;25568;37.410;-122.096;2023-03-08T03:59:12;16.70;80.50
33508;DHT22;25568;37.410;-122.096;2023-03-08T04:01:41;16.80;80.40
33508;DHT22;25568;37.410;-122.096;2023-03-08T04:04:12;16.70;80.20
33508;DHT22;25568;37.410;-122.096;2023-03-08T04:06:40;16.70;80.10
33508;DHT22;25568;37.410;-122.096;2023-03-08T04:09:13;16.70;80.10
33508;DHT22;25568;37.410;-122.096;2023-03-08T04:11:42;16.70;80.00
33508;DHT22;25568;37.410;-122.096;2023-03-08T04:14:11;16.70;79.90
33508;DHT22;25568;37.410;-122.096;2023-03-08T04:16:40;16.70;80.00
33508;DHT22;25568;37.410;-122.096;2023-03-08T04:19:12;16.70;79.90
33508;DHT22;25568;37.410;-122.096;2023-03-08T04:21:41;16.70;79.90
33508;DHT22;25568;37.410;-122.096;2023-03-08T04:24:10;16.70;80.00
33508;DHT22;25568;37.410;-122.096;2023-03-08T04:26:39;16.60;79.90
33508;DHT22;25568;37.410;-122.096;2023-03-08T04:29:08;16.70;80.00
33508;DHT22;25568;37.410;-122.096;2023-03-08T04:31:37;16.60;79.90
33508;DHT22;25568;37.410;-122.096;2023-03-08T04:34:06;16.60;80.00
33508;DHT22;25568;37.410;-122.096;2023-03-08T04:36:36;16.60;80.00
33508;DHT22;25568;37.410;-122.096;2023-03-08T04:39:06;16.60;80.00
33508;DHT22;25568;37.410;-122.096;2023-03-08T04:41:34;16.60;80.00
33508;DHT22;25568;37.410;-122.096;2023-03-08T04:44:03;16.60;80.00
33508;DHT22;25568;37.410;-122.096;2023-03-08T04:46:32;16.60;80.00
33508;DHT22;25568;37.410;-122.096;2023-03-08T04:49:01;16.50;80.00
33508;DHT22;25568;37.410;-122.096;2023-03-08T04:51:30;16.60;80.10
33508;DHT22;25568;37.410;-122.096;2023-03-08T04:54:01;16.60;80.10
33508;DHT22;25568;37.410;-122.096;2023-03-08T04:56:30;16.50;80.00
33508;DHT22;25568;37.410;-122.096;2023-03-08T04:58:59;16.50;80.10
33508;DHT22;25568;37.410;-122.096;2023-03-08T05:01:29;16.50;80.10
33508;DHT22;25568;37.410;-122.096;2023-03-08T05:03:57;16.50;80.00
33508;DHT22;25568;37.410;-122.096;2023-03-08T05:06:27;16.50;80.00
33508;DHT22;25568;37.410;-122.096;2023-03-08T05:08:56;16.60;80.00
33508;DHT22;25568;37.410;-122.096;2023-03-08T05:11:27;16.70;79.70
33508;DHT22;25568;37.410;-122.096;2023-03-08T05:13:57;16.80;79.40
33508;DHT22;25568;37.410;-122.096;2023-03-08T05:16:26;16.90;79.00
33508;DHT22;25568;37.410;-122.096;2023-03-08T05:18:55;17.10;78.70
33508;DHT22;25568;37.410;-122.096;2023-03-08T05:21:24;17.20;78.60
33508;DHT22;25568;37.410;-122.096;2023-03-08T05:23:53;17.30;78.40
33508;DHT22;25568;37.410;-122.096;2023-03-08T05:26:22;17.40;78.20
33508;DHT22;25568;37.410;-122.096;2023-03-08T05:28:53;17.40;78.20
33508;DHT22;25568;37.410;-122.096;2023-03-08T05:31:21;17.40;78.40
33508;DHT22;25568;37.410;-122.096;2023-03-08T05:33:51;17.40;79.60
33508;DHT22;25568;37.410;-122.096;2023-03-08T05:36:20;17.50;79.00
33508;DHT22;25568;37.410;-122.096;2023-03-08T05:38:52;17.50;79.00
33508;DHT22;25568;37.410;-122.096;2023-03-08T05:41:21;17.70;79.20
33508;DHT22;25568;37.410;-122.096;2023-03-08T05:43:52;17.70;79.20
33508;DHT22;25568;37.410;-122.096;2023-03-08T05:46:21;17.70;79.20
33508;DHT22;25568;37.410;-122.096;2023-03-08T05:48:49;17.70;79.30
33508;DHT22;25568;37.410;-122.096;2023-03-08T05:51:18;17.70;79.40
33508;DHT22;25568;37.410;-122.096;2023-03-08T05:53:47;17.70;79.20
33508;DHT22;25568;37.410;-122.096;2023-03-08T05:56:17;17.80;79.30
33508;DHT22;25568;37.410;-122.096;2023-03-08T05:58:47;17.80;79.50
33508;DHT22;25568;37.410;-122.096;2023-03-08T06:01:19;17.90;79.70
33508;DHT22;25568;37.410;-122.096;2023-03-08T06:03:49;17.90;79.50
33508;DHT22;25568;37.410;-122.096;2023-03-08T06:06:19;18.00;79.50
33508;DHT22;25568;37.410;-122.096;2023-03-08T06:08:48;18.00;79.40
33508;DHT22;25568;37.410;-122.096;2023-03-08T06:11:17;18.00;79.90
33508;DHT22;25568;37.410;-122.096;2023-03-08T06:13:46;18.20;78.80
33508;DHT22;25568;37.410;-122.096;2023-03-08T06:16:16;18.30;78.30
33508;DHT22;25568;37.410;-122.096;2023-03-08T06:18:45;18.40;77.90
33508;DHT22;25568;37.410;-122.096;2023-03-08T06:21:16;18.40;77.90
33508;DHT22;25568;37.410;-122.096;2023-03-08T06:23:45;18.30;78.60
33508;DHT22;25568;37.410;-122.096;2023-03-08T06:26:14;18.30;78.90
33508;DHT22;25568;37.410;-122.096;2023-03-08T06:28:43;18.30;79.00
33508;DHT22;25568;37.410;-122.096;2023-03-08T06:31:14;18.40;79.20
33508;DHT22;25568;37.410;-122.096;2023-03-08T06:33:44;18.40;79.00
33508;DHT22;25568;37.410;-122.096;2023-03-08T06:36:15;18.50;78.90
33508;DHT22;25568;37.410;-122.096;2023-03-08T06:38:44;18.60;78.70
33508;DHT22;25568;37.410;-122.096;2023-03-08T06:41:13;18.60;78.70
33508;DHT22;25568;37.410;-122.096;2023-03-08T06:43:42;18.70;78.60
33508;DHT22;25568;37.410;-122.096;2023-03-08T06:46:14;18.80;78.10
33508;DHT22;25568;37.410;-122.096;2023-03-08T06:48:46;18.80;77.80
33508;DHT22;25568;37.410;-122.096;2023-03-08T06:51:15;18.90;77.90
33508;DHT22;25568;37.410;-122.096;2023-03-08T06:53:44;18.80;77.60
33508;DHT22;25568;37.410;-122.096;2023-03-08T06:56:15;18.80;77.70
33508;DHT22;25568;37.410;-122.096;2023-03-08T06:58:44;18.70;77.90
33508;DHT22;25568;37.410;-122.096;2023-03-08T07:01:13;18.70;78.20
33508;DHT22;25568;37.410;-122.096;2023-03-08T07:03:42;18.60;78.60
33508;DHT22;25568;37.410;-122.096;2023-03-08T07:06:14;18.50;78.70
33508;DHT22;25568;37.410;-122.096;2023-03-08T07:08:43;18.50;78.90
33508;DHT22;25568;37.410;-122.096;2023-03-08T07:11:11;18.40;79.10
33508;DHT22;25568;37.410;-122.096;2023-03-08T07:13:40;18.40;79.20
33508;DHT22;25568;37.410;-122.096;2023-03-08T07:16:10;18.30;79.20
33508;DHT22;25568;37.410;-122.096;2023-03-08T07:18:40;18.30;79.30
33508;DHT22;25568;37.410;-122.096;2023-03-08T07:21:09;18.20;79.40
33508;DHT22;25568;37.410;-122.096;2023-03-08T07:23:39;18.20;79.50
33508;DHT22;25568;37.410;-122.096;2023-03-08T07:26:09;18.20;79.70
33508;DHT22;25568;37.410;-122.096;2023-03-08T07:28:38;18.10;79.60
33508;DHT22;25568;37.410;-122.096;2023-03-08T07:31:09;18.10;79.80
33508;DHT22;25568;37.410;-122.096;2023-03-08T07:33:39;18.10;80.00
33508;DHT22;25568;37.410;-122.096;2023-03-08T07:36:08;18.00;80.00
33508;DHT22;25568;37.410;-122.096;2023-03-08T07:38:38;18.00;80.10
33508;DHT22;25568;37.410;-122.096;2023-03-08T07:41:07;18.00;80.40
33508;DHT22;25568;37.410;-122.096;2023-03-08T07:43:36;17.90;80.50
33508;DHT22;25568;37.410;-122.096;2023-03-08T07:46:05;17.90;80.80
33508;DHT22;25568;37.410;-122.096;2023-03-08T07:48:34;17.80;80.90
33508;DHT22;25568;37.410;-122.096;2023-03-08T07:51:04;17.80;80.90
33508;DHT22;25568;37.410;-122.096;2023-03-08T07:53:35;17.80;81.20
33508;DHT22;25568;37.410;-122.096;2023-03-08T07:56:06;17.70;81.20
33508;DHT22;25568;37.410;-122.096;2023-03-08T07:58:36;17.70;81.50
33508;DHT22;25568;37.410;-122.096;2023-03-08T08:01:08;17.70;81.60
33508;DHT22;25568;37.410;-122.096;2023-03-08T08:03:37;17.70;81.70
33508;DHT22;25568;37.410;-122.096;2023-03-08T08:06:07;17.60;81.70
33508;DHT22;25568;37.410;-122.096;2023-03-08T08:08:36;17.60;81.80
33508;DHT22;25568;37.410;-122.096;2023-03-08T08:11:12;17.60;82.10
33508;DHT22;25568;37.410;-122.096;2023-03-08T08:13:41;17.60;82.30
33508;DHT22;25568;37.410;-122.096;2023-03-08T08:16:10;17.60;82.30
33508;DHT22;25568;37.410;-122.096;2023-03-08T08:18:39;17.50;82.30
33508;DHT22;25568;37.410;-122.096;2023-03-08T08:21:10;17.50;82.50
33508;DHT22;25568;37.410;-122.096;2023-03-08T08:23:40;17.50;82.80
33508;DHT22;25568;37.410;-122.096;2023-03-08T08:26:12;17.40;82.80
33508;DHT22;25568;37.410;-122.096;2023-03-08T08:28:42;17.40;82.80
33508;DHT22;25568;37.410;-122.096;2023-03-08T08:31:13;17.40;83.00
33508;DHT22;25568;37.410;-122.096;2023-03-08T08:33:42;17.40;83.00
33508;DHT22;25568;37.410;-122.096;2023-03-08T08:36:13;17.40;83.10
33508;DHT22;25568;37.410;-122.096;2023-03-08T08:38:42;17.40;83.10
33508;DHT22;25568;37.410;-122.096;2023-03-08T08:41:14;17.30;83.10
33508;DHT22;25568;37.410;-122.096;2023-03-08T08:43:44;17.30;83.20
33508;DHT22;25568;37.410;-122.096;2023-03-08T08:46:13;17.30;83.50
33508;DHT22;25568;37.410;-122.096;2023-03-08T08:48:42;17.30;84.00
33508;DHT22;25568;37.410;-122.096;2023-03-08T08:51:12;17.30;84.40
33508;DHT22;25568;37.410;-122.096;2023-03-08T08:53:42;17.30;84.60
33508;DHT22;25568;37.410;-122.096;2023-03-08T08:56:14;17.30;85.50
33508;DHT22;25568;37.410;-122.096;2023-03-08T08:58:44;17.30;85.00
33508;DHT22;25568;37.410;-122.096;2023-03-08T09:01:15;17.30;85.10
33508;DHT22;25568;37.410;-122.096;2023-03-08T09:03:44;17.20;85.30
33508;DHT22;25568;37.410;-122.096;2023-03-08T09:06:14;17.20;85.50
33508;DHT22;25568;37.410;-122.096;2023-03-08T09:08:43;17.20;85.80
33508;DHT22;25568;37.410;-122.096;2023-03-08T09:11:13;17.20;86.10
33508;DHT22;25568;37.410;-122.096;2023-03-08T09:13:42;17.20;86.20
33508;DHT22;25568;37.410;-122.096;2023-03-08T09:16:18;17.20;86.30
33508;DHT22;25568;37.410;-122.096;2023-03-08T09:18:47;17.20;86.60
33508;DHT22;25568;37.410;-122.096;2023-03-08T09:21:16;17.20;86.60
33508;DHT22;25568;37.410;-122.096;2023-03-08T09:23:45;17.10;86.80
33508;DHT22;25568;37.410;-122.096;2023-03-08T09:26:16;17.10;86.90
33508;DHT22;25568;37.410;-122.096;2023-03-08T09:28:44;17.10;87.10
33508;DHT22;25568;37.410;-122.096;2023-03-08T09:31:15;17.10;87.20
33508;DHT22;25568;37.410;-122.096;2023-03-08T09:33:45;17.10;87.40
33508;DHT22;25568;37.410;-122.096;2023-03-08T09:36:15;17.00;87.60
33508;DHT22;25568;37.410;-122.096;2023-03-08T09:38:46;17.00;87.70
33508;DHT22;25568;37.410;-122.096;2023-03-08T09:41:50;17.00;88.10
33508;DHT22;25568;37.410;-122.096;2023-03-08T09:47:32;17.00;88.30
33508;DHT22;25568;37.410;-122.096;2023-03-08T09:50:16;17.00;88.50
33508;DHT22;25568;37.410;-122.096;2023-03-08T09:52:50;17.00;88.70
33508;DHT22;25568;37.410;-122.096;2023-03-08T09:55:23;17.00;88.90
33508;DHT22;25568;37.410;-122.096;2023-03-08T09:57:59;17.00;89.20
33508;DHT22;25568;37.410;-122.096;2023-03-08T10:00:31;17.00;89.00
33508;DHT22;25568;37.410;-122.096;2023-03-08T10:03:27;17.00;89.20
33508;DHT22;25568;37.410;-122.096;2023-03-08T10:06:05;17.00;89.20
33508;DHT22;25568;37.410;-122.096;2023-03-08T10:08:44;16.90;89.30
33508;DHT22;25568;37.410;-122.096;2023-03-08T10:11:22;16.90;89.40
33508;DHT22;25568;37.410;-122.096;2023-03-08T10:13:55;16.90;89.60
33508;DHT22;25568;37.410;-122.096;2023-03-08T10:16:26;16.90;89.80
33508;DHT22;25568;37.410;-122.096;2023-03-08T10:18:58;16.90;89.90
33508;DHT22;25568;37.410;-122.096;2023-03-08T10:21:30;16.90;90.00
33508;DHT22;25568;37.410;-122.096;2023-03-08T10:24:04;16.80;90.00
33508;DHT22;25568;37.410;-122.096;2023-03-08T10:26:40;16.80;90.10
33508;DHT22;25568;37.410;-122.096;2023-03-08T10:29:12;16.80;90.00
33508;DHT22;25568;37.410;-122.096;2023-03-08T10:31:43;16.90;90.00
33508;DHT22;25568;37.410;-122.096;2023-03-08T10:34:14;16.90;89.90
33508;DHT22;25568;37.410;-122.096;2023-03-08T10:36:51;16.90;89.70
33508;DHT22;25568;37.410;-122.096;2023-03-08T10:39:20;17.00;89.70
33508;DHT22;25568;37.410;-122.096;2023-03-08T10:41:51;17.00;89.50
33508;DHT22;25568;37.410;-122.096;2023-03-08T10:44:34;17.00;89.30
33508;DHT22;25568;37.410;-122.096;2023-03-08T10:47:23;17.10;89.20
33508;DHT22;25568;37.410;-122.096;2023-03-08T10:50:20;17.20;89.00
33508;DHT22;25568;37.410;-122.096;2023-03-08T10:52:50;17.10;89.10
33508;DHT22;25568;37.410;-122.096;2023-03-08T10:55:20;17.00;89.20
33508;DHT22;25568;37.410;-122.096;2023-03-08T10:57:51;16.90;89.40
33508;DHT22;25568;37.410;-122.096;2023-03-08T11:00:34;16.90;89.40
33508;DHT22;25568;37.410;-122.096;2023-03-08T11:03:14;16.90;89.80
33508;DHT22;25568;37.410;-122.096;2023-03-08T11:05:57;16.90;90.00
33508;DHT22;25568;37.410;-122.096;2023-03-08T11:08:29;16.80;90.20
33508;DHT22;25568;37.410;-122.096;2023-03-08T11:11:06;16.90;90.30
33508;DHT22;25568;37.410;-122.096;2023-03-08T11:13:37;16.80;90.30
33508;DHT22;25568;37.410;-122.096;2023-03-08T11:16:26;16.80;90.30
33508;DHT22;25568;37.410;-122.096;2023-03-08T11:19:05;16.80;90.30
33508;DHT22;25568;37.410;-122.096;2023-03-08T11:21:47;16.80;90.40
33508;DHT22;25568;37.410;-122.096;2023-03-08T11:24:26;16.80;90.40
33508;DHT22;25568;37.410;-122.096;2023-03-08T11:27:07;16.80;90.40
33508;DHT22;25568;37.410;-122.096;2023-03-08T11:29:48;16.70;90.40
33508;DHT22;25568;37.410;-122.096;2023-03-08T11:32:38;16.70;90.50
33508;DHT22;25568;37.410;-122.096;2023-03-08T11:35:17;16.70;90.60
33508;DHT22;25568;37.410;-122.096;2023-03-08T11:37:55;16.70;90.60
33508;DHT22;25568;37.410;-122.096;2023-03-08T11:40:28;16.70;90.60
33508;DHT22;25568;37.410;-122.096;2023-03-08T11:43:15;16.70;90.50
33508;DHT22;25568;37.410;-122.096;2023-03-08T11:45:50;16.80;90.40
33508;DHT22;25568;37.410;-122.096;2023-03-08T11:48:37;16.90;90.20
33508;DHT22;25568;37.410;-122.096;2023-03-08T11:51:12;17.00;90.00
33508;DHT22;25568;37.410;-122.096;2023-03-08T11:53:54;17.00;89.90
33508;DHT22;25568;37.410;-122.096;2023-03-08T11:56:39;17.00;89.90
33508;DHT22;25568;37.410;-122.096;2023-03-08T11:59:17;16.90;90.00
33508;DHT22;25568;37.410;-122.096;2023-03-08T12:01:51;16.80;90.00
33508;DHT22;25568;37.410;-122.096;2023-03-08T12:04:28;16.80;90.10
33508;DHT22;25568;37.410;-122.096;2023-03-08T12:07:01;16.70;90.10
33508;DHT22;25568;37.410;-122.096;2023-03-08T12:09:35;16.70;90.20
33508;DHT22;25568;37.410;-122.096;2023-03-08T12:12:13;16.70;90.40
33508;DHT22;25568;37.410;-122.096;2023-03-08T12:14:50;16.70;90.40
33508;DHT22;25568;37.410;-122.096;2023-03-08T12:17:24;16.70;90.50
33508;DHT22;25568;37.410;-122.096;2023-03-08T12:19:56;16.70;90.50
33508;DHT22;25568;37.410;-122.096;2023-03-08T12:22:33;16.70;90.50
33508;DHT22;25568;37.410;-122.096;2023-03-08T12:25:11;16.70;90.50
33508;DHT22;25568;37.410;-122.096;2023-03-08T12:27:45;16.70;90.70
33508;DHT22;25568;37.410;-122.096;2023-03-08T12:30:24;16.70;90.70
33508;DHT22;25568;37.410;-122.096;2023-03-08T12:32:55;16.70;90.80
33508;DHT22;25568;37.410;-122.096;2023-03-08T12:35:30;16.70;90.80
33508;DHT22;25568;37.410;-122.096;2023-03-08T12:38:01;16.70;90.80
33508;DHT22;25568;37.410;-122.096;2023-03-08T12:40:39;16.70;90.60
33508;DHT22;25568;37.410;-122.096;2023-03-08T12:43:11;16.70;90.50
33508;DHT22;25568;37.410;-122.096;2023-03-08T12:45:43;16.80;90.40
33508;DHT22;25568;37.410;-122.096;2023-03-08T12:48:19;16.90;90.30
33508;DHT22;25568;37.410;-122.096;2023-03-08T12:51:03;16.90;90.20
33508;DHT22;25568;37.410;-122.096;2023-03-08T12:53:40;17.00;90.10
33508;DHT22;25568;37.410;-122.096;2023-03-08T12:56:22;17.00;90.10
33508;DHT22;25568;37.410;-122.096;2023-03-08T12:58:53;16.90;90.20
33508;DHT22;25568;37.410;-122.096;2023-03-08T13:01:32;16.80;90.20
33508;DHT22;25568;37.410;-122.096;2023-03-08T13:04:03;16.80;90.30
33508;DHT22;25568;37.410;-122.096;2023-03-08T13:07:10;16.70;90.30
33508;DHT22;25568;37.410;-122.096;2023-03-08T13:09:46;16.70;90.50
33508;DHT22;25568;37.410;-122.096;2023-03-08T13:12:33;16.70;90.60
33508;DHT22;25568;37.410;-122.096;2023-03-08T13:15:19;16.70;90.60
33508;DHT22;25568;37.410;-122.096;2023-03-08T13:17:51;16.70;90.70
33508;DHT22;25568;37.410;-122.096;2023-03-08T13:20:21;16.70;90.70
33508;DHT22;25568;37.410;-122.096;2023-03-08T13:23:01;16.70;90.70
33508;DHT22;25568;37.410;-122.096;2023-03-08T13:25:43;16.60;90.80
33508;DHT22;25568;37.410;-122.096;2023-03-08T13:28:15;16.60;90.80
33508;DHT22;25568;37.410;-122.096;2023-03-08T13:30:48;16.60;90.80
33508;DHT22;25568;37.410;-122.096;2023-03-08T13:33:21;16.60;90.80
33508;DHT22;25568;37.410;-122.096;2023-03-08T13:35:58;16.60;90.80
33508;DHT22;25568;37.410;-122.096;2023-03-08T13:38:29;16.60;90.60
33508;DHT22;25568;37.410;-122.096;2023-03-08T13:40:59;16.60;90.40
33508;DHT22;25568;37.410;-122.096;2023-03-08T13:43:29;16.70;90.30
33508;DHT22;25568;37.410;-122.096;2023-03-08T13:46:01;16.80;90.20
33508;DHT22;25568;37.410;-122.096;2023-03-08T13:48:32;16.90;90.00
33508;DHT22;25568;37.410;-122.096;2023-03-08T13:51:02;16.90;89.90
33508;DHT22;25568;37.410;-122.096;2023-03-08T13:53:35;16.90;89.70
33508;DHT22;25568;37.410;-122.096;2023-03-08T13:56:06;16.90;90.00
33508;DHT22;25568;37.410;-122.096;2023-03-08T13:58:37;16.80;90.00
33508;DHT22;25568;37.410;-122.096;2023-03-08T14:01:11;16.70;90.00
33508;DHT22;25568;37.410;-122.096;2023-03-08T14:03:41;16.70;90.10
33508;DHT22;25568;37.410;-122.096;2023-03-08T14:06:17;16.60;90.20
33508;DHT22;25568;37.410;-122.096;2023-03-08T14:08:49;16.60;90.30
33508;DHT22;25568;37.410;-122.096;2023-03-08T14:11:21;16.60;90.40
33508;DHT22;25568;37.410;-122.096;2023-03-08T14:13:53;16.60;90.40
33508;DHT22;25568;37.410;-122.096;2023-03-08T14:16:24;16.50;90.40
33508;DHT22;25568;37.410;-122.096;2023-03-08T14:18:54;16.60;90.50
33508;DHT22;25568;37.410;-122.096;2023-03-08T14:21:25;16.60;90.50
33508;DHT22;25568;37.410;-122.096;2023-03-08T14:23:56;16.60;90.50
33508;DHT22;25568;37.410;-122.096;2023-03-08T14:26:29;16.60;90.40
33508;DHT22;25568;37.410;-122.096;2023-03-08T14:29:12;16.70;90.30
33508;DHT22;25568;37.410;-122.096;2023-03-08T14:31:59;16.70;90.20
33508;DHT22;25568;37.410;-122.096;2023-03-08T14:34:29;16.80;90.10
33508;DHT22;25568;37.410;-122.096;2023-03-08T14:37:01;16.90;90.00
33508;DHT22;25568;37.410;-122.096;2023-03-08T14:39:34;16.90;90.00
33508;DHT22;25568;37.410;-122.096;2023-03-08T14:42:15;16.90;90.00
33508;DHT22;25568;37.410;-122.096;2023-03-08T14:44:51;16.80;90.00
33508;DHT22;25568;37.410;-122.096;2023-03-08T14:47:25;16.80;90.20
33508;DHT22;25568;37.410;-122.096;2023-03-08T14:50:00;16.70;90.10
33508;DHT22;25568;37.410;-122.096;2023-03-08T14:52:31;16.70;90.00
33508;DHT22;25568;37.410;-122.096;2023-03-08T14:55:04;16.60;89.70
33508;DHT22;25568;37.410;-122.096;2023-03-08T14:58:01;16.60;89.00
33508;DHT22;25568;37.410;-122.096;2023-03-08T15:00:30;16.50;88.40
33508;DHT22;25568;37.410;-122.096;2023-03-08T15:03:00;16.50;87.80
33508;DHT22;25568;37.410;-122.096;2023-03-08T15:05:29;16.50;88.10
33508;DHT22;25568;37.410;-122.096;2023-03-08T15:07:59;16.50;88.30
33508;DHT22;25568;37.410;-122.096;2023-03-08T15:10:31;16.50;88.40
33508;DHT22;25568;37.410;-122.096;2023-03-08T15:13:02;16.50;87.80
33508;DHT22;25568;37.410;-122.096;2023-03-08T15:15:31;16.40;87.60
33508;DHT22;25568;37.410;-122.096;2023-03-08T15:18:00;16.50;87.10
33508;DHT22;25568;37.410;-122.096;2023-03-08T15:20:29;16.50;86.50
33508;DHT22;25568;37.410;-122.096;2023-03-08T15:23:00;16.70;85.80